createdAt,value
2022-08-01T00:01:17.798Z,95344.16
2022-08-01T00:03:45.818Z,95335.53
2022-08-01T00:06:13.863Z,95338.81
2022-08-01T00:08:41.819Z,95340.69
2022-08-01T00:11:10.634Z,95337.84
2022-08-01T00:13:38.657Z,95331.53
2022-08-01T00:16:08.167Z,95345.97
2022-08-01T00:18:36.667Z,95338.78
2022-08-01T00:21:04.850Z,95341.22
2022-08-01T00:23:32.925Z,95329.47
2022-08-01T00:26:01.139Z,95334.19
2022-08-01T00:28:29.117Z,95333.09
2022-08-01T00:30:57.226Z,95341.09
2022-08-01T00:33:26.604Z,95339.53
2022-08-01T00:35:54.569Z,95339.53
2022-08-01T00:38:22.543Z,95341.09
2022-08-01T00:40:50.935Z,95335.28
2022-08-01T00:43:18.994Z,95337.78
2022-08-01T00:45:47.098Z,95341.31
2022-08-01T00:48:15.128Z,95347.16
2022-08-01T00:50:44.508Z,95339.16
2022-08-01T00:53:18.955Z,95345.69
2022-08-01T00:55:48.783Z,95348.47
2022-08-01T00:58:17.737Z,95341.06
2022-08-01T01:00:53.899Z,95339.00
2022-08-01T01:03:43.317Z,95343.78
2022-08-01T01:06:29.119Z,95343.69
2022-08-01T01:09:14.080Z,95338.06
2022-08-01T01:11:49.461Z,95341.03
2022-08-01T01:14:25.830Z,95345.56
2022-08-01T01:16:55.923Z,95339.44
2022-08-01T01:19:30.306Z,95341.81
2022-08-01T01:22:20.178Z,95343.38
2022-08-01T01:25:20.311Z,95352.66
2022-08-01T01:27:59.372Z,95345.38
2022-08-01T01:30:32.568Z,95346.78
2022-08-01T01:33:05.698Z,95340.47
2022-08-01T01:35:36.409Z,95338.09
2022-08-01T01:38:11.114Z,95347.19
2022-08-01T01:40:40.336Z,95338.69
2022-08-01T01:43:12.217Z,95339.28
2022-08-01T01:45:43.181Z,95350.53
2022-08-01T01:48:12.471Z,95340.66
2022-08-01T01:50:42.354Z,95345.41
2022-08-01T01:53:15.060Z,95347.56
2022-08-01T01:55:49.717Z,95343.16
2022-08-01T01:58:20.684Z,95348.97
2022-08-01T02:00:52.996Z,95349.56
2022-08-01T02:03:22.968Z,95335.75
2022-08-01T02:05:53.197Z,95345.44
2022-08-01T02:08:24.255Z,95341.69
2022-08-01T02:11:07.953Z,95344.94
2022-08-01T02:13:38.429Z,95347.59
2022-08-01T02:16:09.259Z,95341.47
2022-08-01T02:18:37.509Z,95341.25
2022-08-01T02:21:07.610Z,95342.84
2022-08-01T02:23:38.327Z,95344.44
2022-08-01T02:26:11.840Z,95346.56
2022-08-01T02:28:47.803Z,95351.63
2022-08-01T02:31:21.257Z,95357.72
2022-08-01T02:33:56.354Z,95346.78
2022-08-01T02:36:32.313Z,95346.59
2022-08-01T02:39:03.939Z,95354.69
2022-08-01T02:41:35.552Z,95352.50
2022-08-01T02:44:07.262Z,95345.59
2022-08-01T02:46:40.702Z,95342.44
2022-08-01T02:49:11.170Z,95350.94
2022-08-01T02:51:41.380Z,95341.84
2022-08-01T02:54:12.324Z,95342.44
2022-08-01T02:56:41.864Z,95339.28
2022-08-01T02:59:14.394Z,95343.63
2022-08-01T03:01:46.037Z,95332.19
2022-08-01T03:04:14.757Z,95335.13
2022-08-01T03:06:45.268Z,95336.72
2022-08-01T03:09:16.747Z,95341.03
2022-08-01T03:11:46.425Z,95342.22
2022-08-01T03:14:16.342Z,95344.19
2022-08-01T03:16:48.266Z,95341.25
2022-08-01T03:19:20.302Z,95338.09
2022-08-01T03:21:50.397Z,95337.66
2022-08-01T03:24:20.589Z,95339.81
2022-08-01T03:26:49.587Z,95335.09
2022-08-01T03:29:21.101Z,95337.22
2022-08-01T03:31:51.584Z,95332.50
2022-08-01T03:34:22.314Z,95325.41
2022-08-01T03:36:55.355Z,95324.59
2022-08-01T03:39:27.339Z,95334.22
2022-08-01T03:42:00.044Z,95325.19
2022-08-01T03:44:32.620Z,95329.94
2022-08-01T03:47:04.392Z,95333.09
2022-08-01T03:49:34.944Z,95334.66
2022-08-01T03:52:06.398Z,95323.03
2022-08-01T03:54:38.207Z,95330.22
2022-08-01T03:57:07.660Z,95337.41
2022-08-01T03:59:39.336Z,95328.13
2022-08-01T04:02:09.417Z,95330.88
2022-08-01T04:04:37.693Z,95335.00
2022-08-01T04:07:07.798Z,95327.13
2022-08-01T04:09:35.991Z,95330.06
2022-08-01T04:12:12.234Z,95335.59
2022-08-01T04:14:40.653Z,95346.28
2022-08-01T04:17:09.980Z,95342.06
2022-08-01T04:19:37.941Z,95337.31
2022-08-01T04:22:07.358Z,95337.31
2022-08-01T04:24:38.323Z,95335.16
2022-08-01T04:27:11.716Z,95333.56
2022-08-01T04:29:41.408Z,95337.31
2022-08-01T04:32:14.799Z,95347.75
2022-08-01T04:34:47.155Z,95352.28
2022-08-01T04:37:18.449Z,95347.56
2022-08-01T04:39:50.446Z,95354.53
2022-08-01T04:42:26.071Z,95350.78
2022-08-01T04:44:59.177Z,95353.25
2022-08-01T04:47:29.377Z,95353.47
2022-08-01T04:49:58.082Z,95346.56
2022-08-01T04:52:35.060Z,95348.13
2022-08-01T04:55:03.002Z,95353.38
2022-08-01T04:57:31.784Z,95352.28
2022-08-01T04:59:59.715Z,95353.88
2022-08-01T05:02:30.093Z,95354.06
2022-08-01T05:04:58.026Z,95360.75
2022-08-01T05:07:26.103Z,95356.31
2022-08-01T05:09:54.140Z,95352.88
2022-08-01T05:12:22.437Z,95358.41
2022-08-01T05:14:50.349Z,95344.81
2022-08-01T05:17:18.369Z,95355.94
2022-08-01T05:19:48.001Z,95356.44
2022-08-01T05:22:16.027Z,95360.19
2022-08-01T05:24:44.384Z,95358.31
2022-08-01T05:27:16.343Z,95356.81
2022-08-01T05:29:45.006Z,95356.63
2022-08-01T05:32:13.332Z,95355.63
2022-08-01T05:34:41.478Z,95356.81
2022-08-01T05:37:11.172Z,95360.19
2022-08-01T05:39:39.133Z,95358.03
2022-08-01T05:42:07.749Z,95359.09
2022-08-01T05:44:35.986Z,95361.75
2022-08-01T05:47:04.802Z,95362.34
2022-08-01T05:49:32.827Z,95363.94
2022-08-01T05:52:02.130Z,95368.09
2022-08-01T05:54:31.643Z,95361.03
2022-08-01T05:57:02.576Z,95369.72
2022-08-01T05:59:30.743Z,95361.72
2022-08-01T06:01:59.334Z,95363.00
2022-08-01T06:04:27.541Z,95366.16
2022-08-01T06:06:55.614Z,95354.19
2022-08-01T06:09:23.597Z,95361.88
2022-08-01T06:11:53.010Z,95360.13
2022-08-01T06:14:20.957Z,95361.56
2022-08-01T06:16:48.923Z,95362.94
2022-08-01T06:19:17.148Z,95367.88
2022-08-01T06:21:45.149Z,95359.63
2022-08-01T06:24:13.304Z,95367.88
2022-08-01T06:26:41.344Z,95365.69
2022-08-01T06:29:10.768Z,95367.06
2022-08-01T06:31:40.357Z,95373.44
2022-08-01T06:34:08.315Z,95372.13
2022-08-01T06:36:36.305Z,95377.34
2022-08-01T06:39:04.328Z,95371.84
2022-08-01T06:41:32.296Z,95374.66
2022-08-01T06:44:03.240Z,95374.81
2022-08-01T06:46:32.879Z,95372.41
2022-08-01T06:49:03.064Z,95375.97
2022-08-01T06:51:31.167Z,95368.47
2022-08-01T06:53:59.199Z,95377.91
2022-08-01T06:56:27.180Z,95372.38
2022-08-01T06:58:57.325Z,95367.91
2022-08-01T07:01:25.367Z,95369.88
2022-08-01T07:03:55.140Z,95370.38
2022-08-01T07:06:24.551Z,95370.72
2022-08-01T07:08:53.076Z,95371.28
2022-08-01T07:11:21.149Z,95374.44
2022-08-01T07:13:49.210Z,95371.47
2022-08-01T07:16:18.180Z,95365.13
2022-08-01T07:18:46.187Z,95365.13
2022-08-01T07:21:38.190Z,95367.88
2022-08-01T07:24:12.649Z,95367.69
2022-08-01T07:26:54.444Z,95367.56
2022-08-01T07:29:24.457Z,95370.25
2022-08-01T07:31:52.575Z,95364.63
2022-08-01T07:34:20.527Z,95368.50
2022-08-01T07:36:50.082Z,95368.16
2022-08-01T07:39:18.124Z,95363.63
2022-08-01T07:42:05.416Z,95360.91
2022-08-01T07:44:34.135Z,95362.22
2022-08-01T07:47:02.170Z,95359.41
2022-08-01T07:49:30.563Z,95357.69
2022-08-01T07:52:02.733Z,95355.69
2022-08-01T07:54:33.430Z,95355.28
2022-08-01T07:57:02.327Z,95351.34
2022-08-01T07:59:30.353Z,95350.88
2022-08-01T08:01:58.466Z,95353.16
2022-08-01T08:04:26.610Z,95351.91
2022-08-01T08:06:54.909Z,95347.50
2022-08-01T08:09:24.366Z,95347.66
2022-08-01T08:11:52.617Z,95349.44
2022-08-01T08:14:23.719Z,95349.06
2022-08-01T08:17:02.041Z,95353.16
2022-08-01T08:19:38.392Z,95353.81
2022-08-01T08:22:07.949Z,95343.75
2022-08-01T08:24:45.441Z,95348.19
2022-08-01T08:27:14.859Z,95342.19
2022-08-01T08:29:42.963Z,95341.91
2022-08-01T08:32:11.333Z,95344.06
2022-08-01T08:34:39.475Z,95344.09
2022-08-01T08:37:08.335Z,95341.59
2022-08-01T08:39:41.523Z,95330.25
2022-08-01T08:42:11.749Z,95327.09
2022-08-01T08:44:43.573Z,95332.09
2022-08-01T08:47:19.673Z,95331.44
2022-08-01T08:49:49.823Z,95335.81
2022-08-01T08:52:19.464Z,95327.00
2022-08-01T08:54:50.439Z,95328.22
2022-08-01T08:57:21.069Z,95332.59
2022-08-01T08:59:52.738Z,95331.31
2022-08-01T09:02:20.772Z,95331.22
2022-08-01T09:04:50.101Z,95326.41
2022-08-01T09:07:18.215Z,95328.94
2022-08-01T09:09:46.152Z,95330.75
2022-08-01T09:12:20.534Z,95319.47
2022-08-01T09:14:51.143Z,95321.50
2022-08-01T09:17:19.552Z,95318.59
2022-08-01T09:19:49.151Z,95319.00
2022-08-01T09:22:22.270Z,95311.81
2022-08-01T09:25:00.709Z,95313.84
2022-08-01T09:27:30.551Z,95314.56
2022-08-01T09:30:11.687Z,95320.31
2022-08-01T09:32:55.389Z,95314.56
2022-08-01T09:35:30.114Z,95322.56
2022-08-01T09:38:16.880Z,95313.66
2022-08-01T09:40:52.889Z,95305.16
2022-08-01T09:43:27.325Z,95305.34
2022-08-01T09:45:55.520Z,95307.03
2022-08-01T09:48:28.482Z,95294.31
2022-08-01T09:51:04.206Z,95305.28
2022-08-01T09:53:51.112Z,95292.56
2022-08-01T09:56:20.264Z,95302.84
2022-08-01T09:59:01.701Z,95302.41
2022-08-01T10:01:36.058Z,95312.00
2022-08-01T10:04:09.889Z,95308.19
2022-08-01T10:06:39.159Z,95301.66
2022-08-01T10:09:07.198Z,95299.91
2022-08-01T10:11:39.200Z,95294.78
2022-08-01T10:14:09.464Z,95287.66
2022-08-01T10:16:38.812Z,95293.94
2022-08-01T10:19:11.111Z,95300.09
2022-08-01T10:21:56.153Z,95292.34
2022-08-01T10:24:29.776Z,95289.22
2022-08-01T10:27:09.252Z,95286.56
2022-08-01T10:30:05.350Z,95284.06
2022-08-01T10:32:39.474Z,95282.50
2022-08-01T10:35:15.073Z,95276.69
2022-08-01T10:37:52.453Z,95274.22
2022-08-01T10:40:36.582Z,95272.66
2022-08-01T10:43:05.398Z,95277.13
2022-08-01T10:45:35.746Z,95269.50
2022-08-01T10:48:08.204Z,95272.22
2022-08-01T10:50:44.287Z,95264.34
2022-08-01T10:53:23.375Z,95265.00
2022-08-01T10:56:03.690Z,95265.22
2022-08-01T10:58:39.792Z,95270.63
2022-08-01T11:01:23.863Z,95263.88
2022-08-01T11:04:15.755Z,95264.75
2022-08-01T11:07:06.851Z,95265.34
2022-08-01T11:09:51.502Z,95262.56
2022-08-01T11:12:24.497Z,95278.28
2022-08-01T11:15:50.465Z,95251.03
2022-08-01T11:18:37.805Z,95243.47
2022-08-01T11:21:57.457Z,95243.69
2022-08-01T11:23:54.546Z,95232.47
2022-08-01T11:26:29.012Z,95233.34
2022-08-01T11:29:21.712Z,95228.63
2022-08-01T11:31:51.136Z,95240.28
2022-08-01T11:34:20.700Z,95226.56
2022-08-01T11:36:59.244Z,95233.97
2022-08-01T11:39:29.622Z,95228.31
2022-08-01T11:42:20.951Z,95227.47
2022-08-01T11:44:52.858Z,95218.94
2022-08-01T11:47:40.886Z,95211.03
2022-08-01T11:50:33.858Z,95213.50
2022-08-01T11:53:02.521Z,95212.41
2022-08-01T11:55:32.114Z,95222.31
2022-08-01T11:58:04.618Z,95217.34
2022-08-01T12:00:32.669Z,95219.28
2022-08-01T12:03:04.512Z,95216.63
2022-08-01T12:05:37.847Z,95220.63
2022-08-01T12:08:11.360Z,95217.69
2022-08-01T12:10:46.978Z,95216.72
2022-08-01T12:13:15.447Z,95202.03
2022-08-01T12:15:44.437Z,95206.19
2022-08-01T12:18:12.647Z,95202.06
2022-08-01T12:20:56.189Z,95199.59
2022-08-01T12:23:24.799Z,95191.22
2022-08-01T12:25:54.125Z,95197.22
2022-08-01T12:28:22.117Z,95197.75
2022-08-01T12:30:51.269Z,95194.78
2022-08-01T12:33:20.664Z,95205.06
2022-08-01T12:35:50.585Z,95195.84
2022-08-01T12:38:23.092Z,95196.97
2022-08-01T12:40:52.864Z,95198.88
2022-08-01T12:43:28.207Z,95186.78
2022-08-01T12:45:58.526Z,95182.25
2022-08-01T12:48:27.601Z,95189.22
2022-08-01T12:51:01.418Z,95202.97
2022-08-01T12:53:40.682Z,95201.25
2022-08-01T12:56:10.500Z,95199.69
2022-08-01T12:58:38.546Z,95196.72
2022-08-01T13:01:08.050Z,95182.59
2022-08-01T13:03:36.419Z,95192.47
2022-08-01T13:06:13.503Z,95190.91
2022-08-01T13:08:41.691Z,95185.13
2022-08-01T13:11:14.809Z,95191.63
2022-08-01T13:13:44.419Z,95196.06
2022-08-01T13:16:27.856Z,95179.13
2022-08-01T13:19:01.735Z,95185.13
2022-08-01T13:21:53.265Z,95188.56
2022-08-01T13:24:26.722Z,95189.72
2022-08-01T13:26:59.679Z,95190.56
2022-08-01T13:29:33.796Z,95185.56
2022-08-01T13:32:02.309Z,95177.28
2022-08-01T13:34:33.787Z,95175.19
2022-08-01T13:37:03.678Z,95176.84
2022-08-01T13:39:42.501Z,95181.53
2022-08-01T13:42:11.147Z,95180.00
2022-08-01T13:44:47.292Z,95174.47
2022-08-01T13:47:16.157Z,95164.84
2022-08-01T13:49:45.574Z,95158.97
2022-08-01T13:52:14.939Z,95160.88
2022-08-01T13:54:42.889Z,95173.00
2022-08-01T13:57:11.484Z,95170.81
2022-08-01T13:59:39.741Z,95170.00
2022-08-01T14:02:08.099Z,95168.34
2022-08-01T14:04:36.285Z,95164.63
2022-08-01T14:07:09.707Z,95159.25
2022-08-01T14:09:44.904Z,95151.91
2022-08-01T14:12:13.364Z,95159.63
2022-08-01T14:14:41.420Z,95159.44
2022-08-01T14:17:11.300Z,95141.31
2022-08-01T14:19:41.279Z,95148.47
2022-08-01T14:22:12.942Z,95159.22
2022-08-01T14:24:42.353Z,95149.31
2022-08-01T14:27:11.128Z,95159.34
2022-08-01T14:29:54.793Z,95155.97
2022-08-01T14:32:28.804Z,95155.81
2022-08-01T14:34:57.131Z,95158.88
2022-08-01T14:37:28.790Z,95164.94
2022-08-01T14:40:00.197Z,95152.31
2022-08-01T14:42:28.460Z,95150.44
2022-08-01T14:44:56.444Z,95142.94
2022-08-01T14:47:24.536Z,95140.00
2022-08-01T14:49:52.875Z,95143.75
2022-08-01T14:52:21.556Z,95147.47
2022-08-01T14:54:49.779Z,95154.19
2022-08-01T14:57:20.184Z,95154.88
2022-08-01T14:59:48.466Z,95147.09
2022-08-01T15:02:18.187Z,95137.38
2022-08-01T15:04:46.603Z,95145.16
2022-08-01T15:07:15.389Z,95145.25
2022-08-01T15:09:44.315Z,95153.88
2022-08-01T15:12:12.921Z,95140.47
2022-08-01T15:14:51.525Z,95142.69
2022-08-01T15:17:22.125Z,95138.06
2022-08-01T15:19:52.926Z,95143.59
2022-08-01T15:22:22.266Z,95137.78
2022-08-01T15:24:55.358Z,95144.28
2022-08-01T15:27:25.713Z,95143.75
2022-08-01T15:29:56.106Z,95143.69
2022-08-01T15:32:24.906Z,95159.69
2022-08-01T15:34:52.945Z,95148.19
2022-08-01T15:37:20.923Z,95152.75
2022-08-01T15:39:48.925Z,95144.47
2022-08-01T15:42:20.093Z,95147.00
2022-08-01T15:44:51.870Z,95144.00
2022-08-01T15:47:21.401Z,95151.81
2022-08-01T15:49:53.169Z,95154.09
2022-08-01T15:52:22.862Z,95161.50
2022-08-01T15:54:51.231Z,95150.03
2022-08-01T15:57:19.255Z,95151.59
2022-08-01T15:59:47.273Z,95159.88
2022-08-01T16:02:15.720Z,95157.75
2022-08-01T16:04:45.324Z,95152.22
2022-08-01T16:07:13.355Z,95144.56
2022-08-01T16:09:41.384Z,95154.31
2022-08-01T16:12:10.830Z,95163.03
2022-08-01T16:14:38.864Z,95155.16
2022-08-01T16:17:06.854Z,95161.19
2022-08-01T16:19:34.868Z,95149.97
2022-08-01T16:22:04.765Z,95146.72
2022-08-01T16:24:33.003Z,95145.91
2022-08-01T16:27:00.957Z,95153.31
2022-08-01T16:29:30.816Z,95148.59
2022-08-01T16:32:15.199Z,95162.16
2022-08-01T16:34:47.733Z,95163.50
2022-08-01T16:37:17.313Z,95157.56
2022-08-01T16:39:45.621Z,95153.78
2022-08-01T16:42:15.768Z,95162.25
2022-08-01T16:44:45.072Z,95149.88
2022-08-01T16:47:13.103Z,95163.50
2022-08-01T16:49:41.336Z,95165.56
2022-08-01T16:52:09.756Z,95158.63
2022-08-01T16:54:39.537Z,95154.94
2022-08-01T16:57:08.229Z,95156.13
2022-08-01T16:59:41.583Z,95149.88
2022-08-01T17:02:11.143Z,95154.66
2022-08-01T17:04:39.255Z,95159.63
2022-08-01T17:07:08.149Z,95164.88
2022-08-01T17:09:41.171Z,95155.22
2022-08-01T17:12:14.473Z,95148.75
2022-08-01T17:14:50.821Z,95147.88
2022-08-01T17:17:18.778Z,95145.44
2022-08-01T17:19:46.980Z,95156.66
2022-08-01T17:22:14.912Z,95161.06
2022-08-01T17:24:42.924Z,95174.19
2022-08-01T17:27:13.303Z,95174.66
2022-08-01T17:29:43.904Z,95180.94
2022-08-01T17:32:14.396Z,95183.50
2022-08-01T17:34:42.906Z,95181.59
2022-08-01T17:37:11.148Z,95183.59
2022-08-01T17:39:40.190Z,95177.50
2022-08-01T17:42:09.272Z,95186.53
2022-08-01T17:44:38.608Z,95186.53
2022-08-01T17:47:07.299Z,95178.25
2022-08-01T17:52:28.779Z,95184.75
2022-08-01T17:54:58.913Z,95181.59
2022-08-01T17:57:27.322Z,95195.97
2022-08-01T17:59:57.940Z,95187.00
2022-08-01T18:02:26.450Z,95194.84
2022-08-01T18:04:54.672Z,95193.50
2022-08-01T18:08:02.004Z,95196.75
2022-08-01T18:10:11.926Z,95203.84
2022-08-01T18:12:40.266Z,95212.13
2022-08-01T18:15:10.444Z,95214.28
2022-08-01T18:17:43.251Z,95215.50
2022-08-01T18:20:12.485Z,95205.88
2022-08-01T18:22:41.597Z,95205.88
2022-08-01T18:25:10.597Z,95208.13
2022-08-01T18:28:29.304Z,95209.78
2022-08-01T18:30:28.612Z,95218.16
2022-08-01T18:32:57.046Z,95208.50
2022-08-01T18:35:51.397Z,95208.31
2022-08-01T18:38:14.114Z,95212.31
2022-08-01T18:40:42.769Z,95216.00
2022-08-01T18:43:10.746Z,95224.56
2022-08-01T18:45:42.895Z,95221.63
2022-08-01T18:48:11.454Z,95221.47
2022-08-01T18:50:39.530Z,95218.13
2022-08-01T18:53:07.925Z,95222.44
2022-08-01T18:55:36.070Z,95233.41
2022-08-01T18:58:04.641Z,95229.84
2022-08-01T19:00:32.640Z,95229.84
2022-08-01T19:03:02.008Z,95247.97
2022-08-01T19:05:31.256Z,95258.88
2022-08-01T19:08:06.691Z,95261.50
2022-08-01T19:10:35.689Z,95262.28
2022-08-01T19:13:03.709Z,95259.34
2022-08-01T19:15:31.753Z,95271.47
2022-08-01T19:18:01.941Z,95260.72
2022-08-01T19:20:30.389Z,95256.13
2022-08-01T19:22:58.595Z,95257.59
2022-08-01T19:25:26.903Z,95256.25
2022-08-01T19:27:57.565Z,95255.59
2022-08-01T19:30:25.929Z,95259.22
2022-08-01T19:32:57.169Z,95259.66
2022-08-01T19:35:26.584Z,95258.09
2022-08-01T19:37:54.666Z,95260.97
2022-08-01T19:40:27.055Z,95270.53
2022-08-01T19:42:56.945Z,95273.41
2022-08-01T19:45:25.889Z,95283.91
2022-08-01T19:47:57.044Z,95288.53
2022-08-01T19:50:28.012Z,95286.25
2022-08-01T19:52:58.828Z,95292.16
2022-08-01T19:55:28.751Z,95296.44
2022-08-01T19:58:24.440Z,95292.34
2022-08-01T20:00:49.257Z,95304.41
2022-08-01T20:03:19.523Z,95305.13
2022-08-01T20:05:48.937Z,95305.84
2022-08-01T20:08:17.906Z,95300.25
2022-08-01T20:10:48.569Z,95306.56
2022-08-01T20:13:18.233Z,95305.94
2022-08-01T20:15:46.194Z,95307.31
2022-08-01T20:18:14.142Z,95305.25
2022-08-01T20:20:42.732Z,95310.78
2022-08-01T20:23:18.096Z,95313.13
2022-08-01T20:25:50.628Z,95314.25
2022-08-01T20:28:23.825Z,95320.53
2022-08-01T20:30:55.791Z,95324.97
2022-08-01T20:33:24.243Z,95330.47
2022-08-01T20:35:54.104Z,95327.81
2022-08-01T20:38:27.839Z,95330.81
2022-08-01T20:40:58.799Z,95327.97
2022-08-01T20:43:28.010Z,95322.78
2022-08-01T20:45:57.674Z,95327.06
2022-08-01T20:48:27.497Z,95328.31
2022-08-01T20:51:12.985Z,95322.81
2022-08-01T20:53:44.612Z,95328.03
2022-08-01T20:56:18.663Z,95334.03
2022-08-01T20:58:58.755Z,95324.75
2022-08-01T21:01:30.035Z,95327.09
2022-08-01T21:04:15.011Z,95334.66
2022-08-01T21:06:47.214Z,95325.38
2022-08-01T21:09:23.628Z,95328.38
2022-08-01T21:11:57.355Z,95339.69
2022-08-01T21:14:34.033Z,95332.47
2022-08-01T21:17:08.288Z,95331.34
2022-08-01T21:19:36.376Z,95324.88
2022-08-01T21:22:10.208Z,95333.84
2022-08-01T21:24:58.422Z,95336.38
2022-08-01T21:27:33.520Z,95337.97
2022-08-01T21:30:04.850Z,95336.19
2022-08-01T21:32:34.724Z,95338.56
2022-08-01T21:35:03.601Z,95340.94
2022-08-01T21:37:32.315Z,95342.03
2022-08-01T21:40:09.609Z,95343.75
2022-08-01T21:42:40.802Z,95339.03
2022-08-01T21:45:10.783Z,95348.78
2022-08-01T21:47:39.030Z,95341.88
2022-08-01T21:50:09.484Z,95336.53
2022-08-01T21:52:44.746Z,95334.94
2022-08-01T21:55:35.447Z,95333.53
2022-08-01T21:58:19.171Z,95329.72
2022-08-01T22:00:53.286Z,95336.50
2022-08-01T22:03:27.477Z,95338.84
2022-08-01T22:05:56.913Z,95339.16
2022-08-01T22:08:34.354Z,95338.69
2022-08-01T22:11:06.857Z,95336.75
2022-08-01T22:13:35.451Z,95347.72
2022-08-01T22:16:05.151Z,95344.84
2022-08-01T22:18:35.702Z,95343.63
2022-08-01T22:21:05.517Z,95338.28
2022-08-01T22:23:36.647Z,95340.81
2022-08-01T22:26:08.188Z,95341.91
2022-08-01T22:28:36.693Z,95344.09
2022-08-01T22:31:06.761Z,95341.44
2022-08-01T22:33:36.371Z,95333.09
2022-08-01T22:36:05.562Z,95339.06
2022-08-01T22:38:34.019Z,95338.91
2022-08-01T22:41:04.339Z,95340.00
2022-08-01T22:43:43.046Z,95344.84
2022-08-01T22:46:26.251Z,95342.31
2022-08-01T22:49:01.740Z,95346.09
2022-08-01T22:51:55.645Z,95345.75
2022-08-01T22:54:30.051Z,95353.22
2022-08-01T22:57:00.983Z,95344.47
2022-08-01T22:59:41.649Z,95346.34
2022-08-01T23:02:16.302Z,95348.03
2022-08-01T23:04:47.287Z,95345.69
2022-08-01T23:07:20.962Z,95345.22
2022-08-01T23:09:54.912Z,95344.72
2022-08-01T23:12:26.336Z,95337.34
2022-08-01T23:14:57.312Z,95344.56
2022-08-01T23:17:29.251Z,95344.09
2022-08-01T23:20:02.098Z,95341.19
2022-08-01T23:22:32.536Z,95339.59
2022-08-01T23:25:05.180Z,95336.94
2022-08-01T23:28:04.691Z,95339.13
2022-08-01T23:30:27.761Z,95332.69
2022-08-01T23:32:55.919Z,95327.34
2022-08-01T23:35:24.318Z,95331.72
2022-08-01T23:37:53.147Z,95333.09
2022-08-01T23:40:25.098Z,95321.31
2022-08-01T23:42:54.771Z,95327.25
2022-08-01T23:45:23.240Z,95329.44
2022-08-01T23:47:52.886Z,95331.00
2022-08-01T23:50:22.164Z,95326.91
2022-08-01T23:52:51.179Z,95327.66
2022-08-01T23:55:27.752Z,95326.97
2022-08-01T23:58:06.617Z,95328.97
